sensor_id;sensor_type;location;lat;lon;timestamp;P1;durP1;ratioP1;P2;durP2;ratioP2
9698;SDS011;10089;47.876;8.346;2022-09-09T01:27:11;3.60;;;1.40;;
9698;SDS011;10089;47.876;8.346;2022-09-09T01:40:00;4.83;;;1.40;;
9698;SDS011;10089;47.876;8.346;2022-09-09T01:42:26;7.60;;;1.55;;
9698;SDS011;10089;47.876;8.346;2022-09-09T01:44:52;2.00;;;1.30;;
9698;SDS011;10089;47.876;8.346;2022-09-09T01:47:19;3.50;;;1.50;;
9698;SDS011;10089;47.876;8.346;2022-09-09T01:49:45;3.05;;;1.20;;
9698;SDS011;10089;47.876;8.346;2022-09-09T01:52:10;7.40;;;1.20;;
9698;SDS011;10089;47.876;8.346;2022-09-09T01:54:36;3.70;;;1.35;;
9698;SDS011;10089;47.876;8.346;2022-09-09T01:57:11;5.00;;;1.25;;
9698;SDS011;10089;47.876;8.346;2022-09-09T02:00:26;3.95;;;1.35;;
9698;SDS011;10089;47.876;8.346;2022-09-09T02:05:17;2.63;;;1.30;;
9698;SDS011;10089;47.876;8.346;2022-09-09T02:08:09;2.97;;;1.35;;
9698;SDS011;10089;47.876;8.346;2022-09-09T02:13:20;1.38;;;1.27;;
9698;SDS011;10089;47.876;8.346;2022-09-09T02:15:51;7.18;;;1.45;;
9698;SDS011;10089;47.876;8.346;2022-09-09T02:18:37;3.65;;;1.65;;
9698;SDS011;10089;47.876;8.346;2022-09-09T02:21:14;2.17;;;1.52;;
9698;SDS011;10089;47.876;8.346;2022-09-09T02:23:42;3.83;;;1.63;;
9698;SDS011;10089;47.876;8.346;2022-09-09T02:26:10;4.13;;;1.67;;
9698;SDS011;10089;47.876;8.346;2022-09-09T02:28:40;2.55;;;1.52;;
9698;SDS011;10089;47.876;8.346;2022-09-09T02:31:07;1.98;;;1.27;;
9698;SDS011;10089;47.876;8.346;2022-09-09T02:33:35;3.13;;;1.45;;
9698;SDS011;10089;47.876;8.346;2022-09-09T02:36:06;4.68;;;1.77;;
9698;SDS011;10089;47.876;8.346;2022-09-09T02:38:36;1.67;;;1.42;;
9698;SDS011;10089;47.876;8.346;2022-09-09T02:41:06;2.67;;;1.60;;
9698;SDS011;10089;47.876;8.346;2022-09-09T02:43:35;5.00;;;1.70;;
9698;SDS011;10089;47.876;8.346;2022-09-09T02:49:09;2.67;;;1.63;;
9698;SDS011;10089;47.876;8.346;2022-09-09T02:54:34;5.80;;;1.80;;
9698;SDS011;10089;47.876;8.346;2022-09-09T02:59:36;4.25;;;1.50;;
9698;SDS011;10089;47.876;8.346;2022-09-09T03:02:02;1.50;;;1.20;;
9698;SDS011;10089;47.876;8.346;2022-09-09T03:04:29;2.00;;;1.35;;
9698;SDS011;10089;47.876;8.346;2022-09-09T03:06:56;4.40;;;1.40;;
9698;SDS011;10089;47.876;8.346;2022-09-09T03:09:25;2.47;;;1.30;;
9698;SDS011;10089;47.876;8.346;2022-09-09T03:11:53;6.38;;;1.60;;
9698;SDS011;10089;47.876;8.346;2022-09-09T03:14:20;2.15;;;1.50;;
9698;SDS011;10089;47.876;8.346;2022-09-09T03:16:49;3.10;;;1.50;;
9698;SDS011;10089;47.876;8.346;2022-09-09T03:19:19;4.95;;;1.90;;
9698;SDS011;10089;47.876;8.346;2022-09-09T03:21:46;2.92;;;1.35;;
9698;SDS011;10089;47.876;8.346;2022-09-09T03:24:12;2.20;;;1.23;;
9698;SDS011;10089;47.876;8.346;2022-09-09T03:26:39;2.17;;;1.40;;
9698;SDS011;10089;47.876;8.346;2022-09-09T03:29:06;5.53;;;1.73;;
9698;SDS011;10089;47.876;8.346;2022-09-09T03:31:35;2.63;;;1.50;;
9698;SDS011;10089;47.876;8.346;2022-09-09T03:34:01;2.13;;;1.20;;
9698;SDS011;10089;47.876;8.346;2022-09-09T03:36:27;3.05;;;1.70;;
9698;SDS011;10089;47.876;8.346;2022-09-09T03:38:54;2.47;;;1.40;;
9698;SDS011;10089;47.876;8.346;2022-09-09T03:41:23;4.50;;;1.50;;
9698;SDS011;10089;47.876;8.346;2022-09-09T03:43:53;4.82;;;1.88;;
9698;SDS011;10089;47.876;8.346;2022-09-09T03:46:19;3.08;;;1.70;;
9698;SDS011;10089;47.876;8.346;2022-09-09T03:48:47;2.20;;;1.60;;
9698;SDS011;10089;47.876;8.346;2022-09-09T03:51:13;1.92;;;1.60;;
9698;SDS011;10089;47.876;8.346;2022-09-09T03:53:39;8.73;;;2.25;;
9698;SDS011;10089;47.876;8.346;2022-09-09T03:56:05;4.80;;;1.80;;
9698;SDS011;10089;47.876;8.346;2022-09-09T03:58:35;4.38;;;1.52;;
9698;SDS011;10089;47.876;8.346;2022-09-09T04:01:03;4.95;;;1.70;;
9698;SDS011;10089;47.876;8.346;2022-09-09T04:03:31;2.33;;;1.50;;
9698;SDS011;10089;47.876;8.346;2022-09-09T04:05:58;3.92;;;1.50;;
9698;SDS011;10089;47.876;8.346;2022-09-09T04:08:27;2.92;;;1.73;;
9698;SDS011;10089;47.876;8.346;2022-09-09T04:10:53;3.65;;;1.60;;
9698;SDS011;10089;47.876;8.346;2022-09-09T04:13:23;7.00;;;2.17;;
9698;SDS011;10089;47.876;8.346;2022-09-09T04:15:56;3.35;;;1.70;;
9698;SDS011;10089;47.876;8.346;2022-09-09T04:18:24;3.30;;;1.70;;
9698;SDS011;10089;47.876;8.346;2022-09-09T04:20:51;2.45;;;1.35;;
9698;SDS011;10089;47.876;8.346;2022-09-09T04:23:18;3.90;;;1.58;;
9698;SDS011;10089;47.876;8.346;2022-09-09T04:25:45;4.38;;;1.80;;
9698;SDS011;10089;47.876;8.346;2022-09-09T04:28:16;2.22;;;1.52;;
9698;SDS011;10089;47.876;8.346;2022-09-09T04:30:42;5.22;;;1.77;;
9698;SDS011;10089;47.876;8.346;2022-09-09T04:33:10;2.72;;;1.63;;
9698;SDS011;10089;47.876;8.346;2022-09-09T04:35:36;2.72;;;1.40;;
9698;SDS011;10089;47.876;8.346;2022-09-09T04:38:03;4.38;;;1.73;;
9698;SDS011;10089;47.876;8.346;2022-09-09T04:40:30;3.15;;;1.50;;
9698;SDS011;10089;47.876;8.346;2022-09-09T04:43:00;7.50;;;1.60;;
9698;SDS011;10089;47.876;8.346;2022-09-09T04:45:29;1.95;;;1.70;;
9698;SDS011;10089;47.876;8.346;2022-09-09T04:47:56;4.10;;;1.50;;
9698;SDS011;10089;47.876;8.346;2022-09-09T04:50:22;3.85;;;2.25;;
9698;SDS011;10089;47.876;8.346;2022-09-09T04:52:47;5.32;;;1.60;;
9698;SDS011;10089;47.876;8.346;2022-09-09T04:55:13;4.35;;;1.48;;
9698;SDS011;10089;47.876;8.346;2022-09-09T04:57:39;3.25;;;1.60;;
9698;SDS011;10089;47.876;8.346;2022-09-09T05:00:05;8.25;;;1.42;;
9698;SDS011;10089;47.876;8.346;2022-09-09T05:02:32;4.68;;;2.55;;
9698;SDS011;10089;47.876;8.346;2022-09-09T05:04:58;4.63;;;1.83;;
9698;SDS011;10089;47.876;8.346;2022-09-09T05:07:26;2.58;;;1.40;;
9698;SDS011;10089;47.876;8.346;2022-09-09T05:09:52;5.35;;;1.73;;
9698;SDS011;10089;47.876;8.346;2022-09-09T05:12:18;2.20;;;1.60;;
9698;SDS011;10089;47.876;8.346;2022-09-09T05:14:44;2.05;;;1.58;;
9698;SDS011;10089;47.876;8.346;2022-09-09T05:17:11;5.57;;;1.90;;
9698;SDS011;10089;47.876;8.346;2022-09-09T05:19:37;3.47;;;1.50;;
9698;SDS011;10089;47.876;8.346;2022-09-09T05:22:03;2.38;;;1.45;;
9698;SDS011;10089;47.876;8.346;2022-09-09T05:24:29;2.20;;;1.15;;
9698;SDS011;10089;47.876;8.346;2022-09-09T05:26:58;3.45;;;1.90;;
9698;SDS011;10089;47.876;8.346;2022-09-09T05:29:25;7.40;;;1.65;;
9698;SDS011;10089;47.876;8.346;2022-09-09T05:31:51;3.42;;;1.60;;
9698;SDS011;10089;47.876;8.346;2022-09-09T05:34:17;5.20;;;1.70;;
9698;SDS011;10089;47.876;8.346;2022-09-09T05:36:43;3.97;;;1.50;;
9698;SDS011;10089;47.876;8.346;2022-09-09T05:39:09;4.32;;;1.98;;
9698;SDS011;10089;47.876;8.346;2022-09-09T05:41:37;4.85;;;1.77;;
9698;SDS011;10089;47.876;8.346;2022-09-09T05:44:02;4.32;;;1.65;;
9698;SDS011;10089;47.876;8.346;2022-09-09T05:46:28;5.25;;;2.00;;
9698;SDS011;10089;47.876;8.346;2022-09-09T05:48:55;5.50;;;1.70;;
9698;SDS011;10089;47.876;8.346;2022-09-09T05:51:22;4.03;;;1.70;;
9698;SDS011;10089;47.876;8.346;2022-09-09T05:53:53;6.15;;;1.92;;
9698;SDS011;10089;47.876;8.346;2022-09-09T05:56:28;5.03;;;1.70;;
9698;SDS011;10089;47.876;8.346;2022-09-09T05:58:55;2.83;;;1.75;;
9698;SDS011;10089;47.876;8.346;2022-09-09T06:01:25;7.72;;;2.50;;
9698;SDS011;10089;47.876;8.346;2022-09-09T06:03:53;3.47;;;2.25;;
9698;SDS011;10089;47.876;8.346;2022-09-09T06:06:26;4.18;;;1.98;;
9698;SDS011;10089;47.876;8.346;2022-09-09T06:08:58;3.55;;;2.00;;
9698;SDS011;10089;47.876;8.346;2022-09-09T06:11:25;6.95;;;1.95;;
9698;SDS011;10089;47.876;8.346;2022-09-09T06:13:56;2.20;;;1.70;;
9698;SDS011;10089;47.876;8.346;2022-09-09T06:16:22;3.72;;;1.80;;
9698;SDS011;10089;47.876;8.346;2022-09-09T06:18:51;5.78;;;2.10;;
9698;SDS011;10089;47.876;8.346;2022-09-09T06:21:19;4.55;;;1.98;;
9698;SDS011;10089;47.876;8.346;2022-09-09T06:23:46;2.70;;;1.88;;
9698;SDS011;10089;47.876;8.346;2022-09-09T06:26:16;3.83;;;2.20;;
9698;SDS011;10089;47.876;8.346;2022-09-09T06:28:48;3.30;;;2.40;;
9698;SDS011;10089;47.876;8.346;2022-09-09T06:31:16;3.03;;;1.95;;
9698;SDS011;10089;47.876;8.346;2022-09-09T06:33:47;3.78;;;1.92;;
9698;SDS011;10089;47.876;8.346;2022-09-09T06:36:17;2.25;;;1.70;;
9698;SDS011;10089;47.876;8.346;2022-09-09T06:38:45;5.65;;;1.95;;
9698;SDS011;10089;47.876;8.346;2022-09-09T06:41:12;2.92;;;1.90;;
9698;SDS011;10089;47.876;8.346;2022-09-09T06:43:40;4.82;;;1.80;;
9698;SDS011;10089;47.876;8.346;2022-09-09T06:46:10;3.28;;;1.70;;
9698;SDS011;10089;47.876;8.346;2022-09-09T06:48:41;6.35;;;2.10;;
9698;SDS011;10089;47.876;8.346;2022-09-09T06:51:13;2.30;;;1.67;;
9698;SDS011;10089;47.876;8.346;2022-09-09T06:54:18;2.85;;;1.80;;
9698;SDS011;10089;47.876;8.346;2022-09-09T06:56:53;3.20;;;2.05;;
9698;SDS011;10089;47.876;8.346;2022-09-09T06:59:19;4.43;;;1.70;;
9698;SDS011;10089;47.876;8.346;2022-09-09T07:01:49;4.68;;;2.08;;
9698;SDS011;10089;47.876;8.346;2022-09-09T07:04:23;3.70;;;2.22;;
9698;SDS011;10089;47.876;8.346;2022-09-09T07:07:04;3.05;;;1.85;;
9698;SDS011;10089;47.876;8.346;2022-09-09T07:20:06;3.65;;;2.28;;
9698;SDS011;10089;47.876;8.346;2022-09-09T07:22:32;5.43;;;1.77;;
9698;SDS011;10089;47.876;8.346;2022-09-09T07:24:58;2.60;;;1.80;;
9698;SDS011;10089;47.876;8.346;2022-09-09T07:27:24;2.92;;;2.05;;
9698;SDS011;10089;47.876;8.346;2022-09-09T07:29:50;3.53;;;1.88;;
9698;SDS011;10089;47.876;8.346;2022-09-09T07:32:15;5.60;;;2.17;;
9698;SDS011;10089;47.876;8.346;2022-09-09T07:34:42;3.42;;;1.70;;
9698;SDS011;10089;47.876;8.346;2022-09-09T07:37:08;3.22;;;1.70;;
9698;SDS011;10089;47.876;8.346;2022-09-09T07:39:36;6.00;;;1.80;;
9698;SDS011;10089;47.876;8.346;2022-09-09T07:42:02;3.03;;;1.70;;
9698;SDS011;10089;47.876;8.346;2022-09-09T07:44:30;1.70;;;0.95;;
9698;SDS011;10089;47.876;8.346;2022-09-09T07:46:57;3.78;;;1.15;;
9698;SDS011;10089;47.876;8.346;2022-09-09T07:49:23;5.70;;;1.48;;
9698;SDS011;10089;47.876;8.346;2022-09-09T07:51:49;2.45;;;1.05;;
9698;SDS011;10089;47.876;8.346;2022-09-09T07:54:16;3.10;;;1.23;;
9698;SDS011;10089;47.876;8.346;2022-09-09T07:56:45;3.67;;;1.55;;
9698;SDS011;10089;47.876;8.346;2022-09-09T07:59:12;4.93;;;1.20;;
9698;SDS011;10089;47.876;8.346;2022-09-09T08:01:39;2.30;;;1.23;;
9698;SDS011;10089;47.876;8.346;2022-09-09T08:04:15;4.32;;;1.17;;
9698;SDS011;10089;47.876;8.346;2022-09-09T08:06:52;2.72;;;1.40;;
9698;SDS011;10089;47.876;8.346;2022-09-09T08:09:20;6.43;;;1.20;;
9698;SDS011;10089;47.876;8.346;2022-09-09T08:11:49;6.30;;;1.52;;
9698;SDS011;10089;47.876;8.346;2022-09-09T08:14:16;3.90;;;1.20;;
9698;SDS011;10089;47.876;8.346;2022-09-09T08:16:43;2.67;;;1.30;;
9698;SDS011;10089;47.876;8.346;2022-09-09T08:19:11;4.85;;;1.73;;
9698;SDS011;10089;47.876;8.346;2022-09-09T08:21:38;4.95;;;1.55;;
9698;SDS011;10089;47.876;8.346;2022-09-09T08:24:05;2.80;;;1.80;;
9698;SDS011;10089;47.876;8.346;2022-09-09T08:26:37;5.15;;;1.23;;
9698;SDS011;10089;47.876;8.346;2022-09-09T08:29:12;4.20;;;1.40;;
9698;SDS011;10089;47.876;8.346;2022-09-09T08:31:41;3.78;;;1.45;;
9698;SDS011;10089;47.876;8.346;2022-09-09T08:34:11;4.13;;;1.25;;
9698;SDS011;10089;47.876;8.346;2022-09-09T08:36:39;4.20;;;1.95;;
9698;SDS011;10089;47.876;8.346;2022-09-09T08:39:08;4.75;;;1.55;;
9698;SDS011;10089;47.876;8.346;2022-09-09T08:47:41;2.53;;;1.48;;
9698;SDS011;10089;47.876;8.346;2022-09-09T08:50:32;6.75;;;1.50;;
9698;SDS011;10089;47.876;8.346;2022-09-09T08:55:39;2.42;;;1.20;;
9698;SDS011;10089;47.876;8.346;2022-09-09T08:58:18;4.05;;;1.10;;
9698;SDS011;10089;47.876;8.346;2022-09-09T09:00:57;2.67;;;1.23;;
9698;SDS011;10089;47.876;8.346;2022-09-09T09:11:40;7.15;;;1.58;;
9698;SDS011;10089;47.876;8.346;2022-09-09T09:14:26;5.55;;;1.23;;
9698;SDS011;10089;47.876;8.346;2022-09-09T09:17:12;3.63;;;1.13;;
9698;SDS011;10089;47.876;8.346;2022-09-09T09:19:42;6.03;;;1.25;;
9698;SDS011;10089;47.876;8.346;2022-09-09T09:30:55;4.45;;;1.15;;
9698;SDS011;10089;47.876;8.346;2022-09-09T09:33:45;1.42;;;0.90;;
9698;SDS011;10089;47.876;8.346;2022-09-09T09:36:14;1.48;;;1.02;;
9698;SDS011;10089;47.876;8.346;2022-09-09T09:38:54;1.95;;;1.00;;
9698;SDS011;10089;47.876;8.346;2022-09-09T09:44:32;3.08;;;1.10;;
9698;SDS011;10089;47.876;8.346;2022-09-09T09:49:36;1.58;;;0.90;;
9698;SDS011;10089;47.876;8.346;2022-09-09T09:52:02;4.18;;;0.88;;
9698;SDS011;10089;47.876;8.346;2022-09-09T09:54:30;6.60;;;1.00;;
9698;SDS011;10089;47.876;8.346;2022-09-09T09:57:08;3.08;;;0.93;;
9698;SDS011;10089;47.876;8.346;2022-09-09T09:59:39;3.78;;;1.27;;
9698;SDS011;10089;47.876;8.346;2022-09-09T10:02:31;1.52;;;0.98;;
9698;SDS011;10089;47.876;8.346;2022-09-09T10:05:00;4.75;;;1.17;;
9698;SDS011;10089;47.876;8.346;2022-09-09T10:07:31;2.38;;;1.13;;
9698;SDS011;10089;47.876;8.346;2022-09-09T10:09:58;2.63;;;0.90;;
9698;SDS011;10089;47.876;8.346;2022-09-09T10:12:30;2.42;;;0.77;;
9698;SDS011;10089;47.876;8.346;2022-09-09T10:15:30;1.98;;;1.00;;
9698;SDS011;10089;47.876;8.346;2022-09-09T10:20:45;3.80;;;1.00;;
9698;SDS011;10089;47.876;8.346;2022-09-09T10:26:02;3.55;;;1.50;;
9698;SDS011;10089;47.876;8.346;2022-09-09T10:29:02;2.05;;;0.93;;
9698;SDS011;10089;47.876;8.346;2022-09-09T10:40:39;3.83;;;0.80;;
9698;SDS011;10089;47.876;8.346;2022-09-09T10:43:32;1.80;;;1.10;;
9698;SDS011;10089;47.876;8.346;2022-09-09T10:57:39;3.93;;;1.20;;
9698;SDS011;10089;47.876;8.346;2022-09-09T11:00:23;3.83;;;0.98;;
9698;SDS011;10089;47.876;8.346;2022-09-09T11:03:19;1.27;;;0.70;;
9698;SDS011;10089;47.876;8.346;2022-09-09T11:06:00;1.92;;;0.90;;
9698;SDS011;10089;47.876;8.346;2022-09-09T11:08:32;4.77;;;0.90;;
9698;SDS011;10089;47.876;8.346;2022-09-09T11:16:36;1.10;;;0.80;;
9698;SDS011;10089;47.876;8.346;2022-09-09T11:21:54;3.10;;;1.00;;
9698;SDS011;10089;47.876;8.346;2022-09-09T17:49:06;1.30;;;0.90;;
9698;SDS011;10089;47.876;8.346;2022-09-09T17:54:09;2.20;;;0.90;;
9698;SDS011;10089;47.876;8.346;2022-09-09T18:51:04;3.10;;;1.00;;
9698;SDS011;10089;47.876;8.346;2022-09-09T18:56:02;1.40;;;0.90;;
9698;SDS011;10089;47.876;8.346;2022-09-09T18:58:31;2.30;;;0.75;;
9698;SDS011;10089;47.876;8.346;2022-09-09T19:00:58;1.95;;;1.00;;
9698;SDS011;10089;47.876;8.346;2022-09-09T19:03:25;6.20;;;0.90;;
9698;SDS011;10089;47.876;8.346;2022-09-09T19:05:52;1.50;;;0.80;;
9698;SDS011;10089;47.876;8.346;2022-09-09T19:08:25;4.30;;;0.90;;
9698;SDS011;10089;47.876;8.346;2022-09-09T19:10:50;2.70;;;0.80;;
9698;SDS011;10089;47.876;8.346;2022-09-09T19:13:16;1.70;;;0.80;;
9698;SDS011;10089;47.876;8.346;2022-09-09T19:22:59;1.55;;;0.80;;
9698;SDS011;10089;47.876;8.346;2022-09-09T19:25:26;5.10;;;1.00;;
9698;SDS011;10089;47.876;8.346;2022-09-09T19:27:52;2.40;;;1.40;;
9698;SDS011;10089;47.876;8.346;2022-09-09T19:30:18;2.20;;;1.00;;
9698;SDS011;10089;47.876;8.346;2022-09-09T19:37:35;2.20;;;1.00;;
9698;SDS011;10089;47.876;8.346;2022-09-09T19:40:01;3.10;;;0.90;;
9698;SDS011;10089;47.876;8.346;2022-09-09T19:42:29;2.75;;;0.80;;
9698;SDS011;10089;47.876;8.346;2022-09-09T19:44:56;2.10;;;0.90;;
9698;SDS011;10089;47.876;8.346;2022-09-09T19:47:22;3.80;;;1.25;;
9698;SDS011;10089;47.876;8.346;2022-09-09T19:49:48;1.10;;;0.80;;
9698;SDS011;10089;47.876;8.346;2022-09-09T19:57:11;3.10;;;1.20;;
9698;SDS011;10089;47.876;8.346;2022-09-09T19:59:37;1.45;;;0.70;;
9698;SDS011;10089;47.876;8.346;2022-09-09T20:04:28;1.70;;;0.90;;
9698;SDS011;10089;47.876;8.346;2022-09-09T20:11:49;1.00;;;0.90;;
9698;SDS011;10089;47.876;8.346;2022-09-09T20:14:25;2.80;;;0.80;;
9698;SDS011;10089;47.876;8.346;2022-09-09T20:16:51;2.00;;;0.90;;
9698;SDS011;10089;47.876;8.346;2022-09-09T20:19:17;5.40;;;1.05;;
9698;SDS011;10089;47.876;8.346;2022-09-09T20:21:44;1.90;;;0.87;;
9698;SDS011;10089;47.876;8.346;2022-09-09T20:24:13;2.40;;;0.85;;
9698;SDS011;10089;47.876;8.346;2022-09-09T20:26:44;3.15;;;1.00;;
9698;SDS011;10089;47.876;8.346;2022-09-09T20:29:12;1.20;;;0.90;;
9698;SDS011;10089;47.876;8.346;2022-09-09T20:31:41;1.70;;;0.90;;
9698;SDS011;10089;47.876;8.346;2022-09-09T20:34:09;1.75;;;0.80;;
9698;SDS011;10089;47.876;8.346;2022-09-09T20:36:37;1.90;;;1.20;;
9698;SDS011;10089;47.876;8.346;2022-09-09T20:41:33;1.00;;;0.70;;
9698;SDS011;10089;47.876;8.346;2022-09-09T20:53:54;2.20;;;0.80;;
9698;SDS011;10089;47.876;8.346;2022-09-09T21:08:33;2.10;;;0.70;;
9698;SDS011;10089;47.876;8.346;2022-09-09T21:13:29;2.60;;;0.70;;
9698;SDS011;10089;47.876;8.346;2022-09-09T21:15:56;1.40;;;0.60;;
9698;SDS011;10089;47.876;8.346;2022-09-09T21:20:48;2.50;;;0.60;;
9698;SDS011;10089;47.876;8.346;2022-09-09T21:25:41;2.80;;;0.60;;
9698;SDS011;10089;47.876;8.346;2022-09-09T21:30:34;2.30;;;0.80;;
9698;SDS011;10089;47.876;8.346;2022-09-09T21:37:54;2.10;;;1.00;;
9698;SDS011;10089;47.876;8.346;2022-09-09T21:42:46;2.50;;;0.80;;
9698;SDS011;10089;47.876;8.346;2022-09-09T21:45:12;3.90;;;0.90;;
9698;SDS011;10089;47.876;8.346;2022-09-09T21:47:39;1.70;;;0.90;;
9698;SDS011;10089;47.876;8.346;2022-09-09T21:50:10;1.50;;;0.70;;
9698;SDS011;10089;47.876;8.346;2022-09-09T21:55:01;1.20;;;0.70;;
9698;SDS011;10089;47.876;8.346;2022-09-09T21:59:52;1.00;;;0.70;;
9698;SDS011;10089;47.876;8.346;2022-09-09T22:02:18;2.10;;;0.80;;
9698;SDS011;10089;47.876;8.346;2022-09-09T22:04:45;3.00;;;0.80;;
9698;SDS011;10089;47.876;8.346;2022-09-09T22:07:12;2.85;;;0.70;;
9698;SDS011;10089;47.876;8.346;2022-09-09T22:09:41;1.50;;;0.90;;
9698;SDS011;10089;47.876;8.346;2022-09-09T22:12:08;1.20;;;0.70;;
9698;SDS011;10089;47.876;8.346;2022-09-09T22:14:34;1.75;;;0.90;;
9698;SDS011;10089;47.876;8.346;2022-09-09T22:17:00;0.70;;;0.50;;
9698;SDS011;10089;47.876;8.346;2022-09-09T22:19:26;1.80;;;0.70;;
9698;SDS011;10089;47.876;8.346;2022-09-09T22:21:52;1.80;;;0.80;;
9698;SDS011;10089;47.876;8.346;2022-09-09T22:24:18;5.15;;;0.85;;
9698;SDS011;10089;47.876;8.346;2022-09-09T22:29:10;2.30;;;0.90;;
9698;SDS011;10089;47.876;8.346;2022-09-09T22:31:36;2.60;;;1.10;;
9698;SDS011;10089;47.876;8.346;2022-09-09T22:34:03;3.10;;;0.80;;
9698;SDS011;10089;47.876;8.346;2022-09-09T22:36:29;2.17;;;0.63;;
9698;SDS011;10089;47.876;8.346;2022-09-09T22:38:55;1.50;;;0.70;;
9698;SDS011;10089;47.876;8.346;2022-09-09T22:41:22;4.40;;;0.70;;
9698;SDS011;10089;47.876;8.346;2022-09-09T22:43:49;1.45;;;0.80;;
9698;SDS011;10089;47.876;8.346;2022-09-09T22:46:15;1.53;;;0.57;;
9698;SDS011;10089;47.876;8.346;2022-09-09T22:48:41;1.45;;;0.50;;
9698;SDS011;10089;47.876;8.346;2022-09-09T22:51:09;4.00;;;0.97;;
9698;SDS011;10089;47.876;8.346;2022-09-09T22:53:37;0.60;;;0.60;;
9698;SDS011;10089;47.876;8.346;2022-09-09T22:56:05;2.40;;;0.80;;
9698;SDS011;10089;47.876;8.346;2022-09-09T22:58:33;4.53;;;0.93;;
9698;SDS011;10089;47.876;8.346;2022-09-09T23:01:05;2.10;;;0.85;;
9698;SDS011;10089;47.876;8.346;2022-09-09T23:03:39;3.97;;;0.82;;
9698;SDS011;10089;47.876;8.346;2022-09-09T23:06:06;2.83;;;0.82;;
9698;SDS011;10089;47.876;8.346;2022-09-09T23:08:34;3.30;;;1.07;;
9698;SDS011;10089;47.876;8.346;2022-09-09T23:11:05;0.73;;;0.70;;
9698;SDS011;10089;47.876;8.346;2022-09-09T23:13:39;0.60;;;0.60;;
9698;SDS011;10089;47.876;8.346;2022-09-09T23:16:08;2.50;;;0.80;;
9698;SDS011;10089;47.876;8.346;2022-09-09T23:18:35;2.80;;;1.10;;
9698;SDS011;10089;47.876;8.346;2022-09-09T23:21:04;1.10;;;0.60;;
9698;SDS011;10089;47.876;8.346;2022-09-09T23:23:31;4.30;;;0.80;;
9698;SDS011;10089;47.876;8.346;2022-09-09T23:26:00;1.67;;;0.83;;
9698;SDS011;10089;47.876;8.346;2022-09-09T23:28:28;1.50;;;0.70;;
9698;SDS011;10089;47.876;8.346;2022-09-09T23:30:56;1.30;;;0.80;;
9698;SDS011;10089;47.876;8.346;2022-09-09T23:33:22;2.30;;;0.90;;
9698;SDS011;10089;47.876;8.346;2022-09-09T23:35:48;4.40;;;1.00;;
9698;SDS011;10089;47.876;8.346;2022-09-09T23:38:22;3.55;;;0.90;;
9698;SDS011;10089;47.876;8.346;2022-09-09T23:40:47;1.05;;;0.75;;
9698;SDS011;10089;47.876;8.346;2022-09-09T23:43:13;1.73;;;0.83;;
9698;SDS011;10089;47.876;8.346;2022-09-09T23:45:39;0.60;;;0.60;;
9698;SDS011;10089;47.876;8.346;2022-09-09T23:48:05;0.95;;;0.65;;
9698;SDS011;10089;47.876;8.346;2022-09-09T23:50:31;3.15;;;0.65;;
9698;SDS011;10089;47.876;8.346;2022-09-09T23:52:57;6.03;;;1.23;;
9698;SDS011;10089;47.876;8.346;2022-09-09T23:55:23;5.33;;;1.03;;
9698;SDS011;10089;47.876;8.346;2022-09-09T23:57:49;3.37;;;0.73;;
